createdAt,value
2023-01-29T00:05:27.636Z,100182.66
2023-01-29T00:10:50.248Z,100159.94
2023-01-29T00:16:12.562Z,100165.84
2023-01-29T00:21:35.110Z,100157.56
2023-01-29T00:26:57.086Z,100142.38
2023-01-29T00:32:21.677Z,100147.47
2023-01-29T00:37:46.750Z,100138.38
2023-01-29T00:43:26.869Z,100135.34
2023-01-29T00:48:48.949Z,100135.16
2023-01-29T00:54:10.983Z,100085.34
2023-01-29T00:59:35.857Z,100101.25
2023-01-29T01:04:57.963Z,100097.22
2023-01-29T01:10:32.804Z,100062.28
2023-01-29T01:15:54.875Z,100063.09
2023-01-29T01:21:16.960Z,100053.19
2023-01-29T01:26:39.664Z,100106.78
2023-01-29T01:32:02.191Z,100086.09
2023-01-29T01:37:24.467Z,100054.81
2023-01-29T01:43:01.302Z,100097.47
2023-01-29T01:48:34.223Z,100026.88
2023-01-29T01:54:03.147Z,100064.41
2023-01-29T01:59:25.662Z,100066.66
2023-01-29T02:05:09.360Z,100061.19
2023-01-29T02:10:38.261Z,100056.75
2023-01-29T02:16:00.748Z,100039.47
2023-01-29T02:21:41.510Z,100042.94
2023-01-29T02:27:09.878Z,100044.59
2023-01-29T02:33:36.290Z,100032.63
2023-01-29T02:39:26.679Z,100026.69
2023-01-29T02:44:53.252Z,100027.72
2023-01-29T02:50:54.440Z,100014.56
2023-01-29T02:56:25.253Z,99956.28
2023-01-29T03:01:59.353Z,99969.31
2023-01-29T03:07:46.661Z,99954.06
2023-01-29T03:13:38.684Z,99981.09
2023-01-29T03:19:09.860Z,99929.56
2023-01-29T03:25:11.290Z,99971.75
2023-01-29T03:31:00.759Z,99967.91
2023-01-29T03:36:49.880Z,99974.41
2023-01-29T03:42:49.338Z,99976.44
2023-01-29T03:48:53.295Z,99912.31
2023-01-29T03:54:22.546Z,99950.50
2023-01-29T04:00:15.700Z,99936.09
2023-01-29T04:06:06.009Z,99926.19
2023-01-29T04:11:31.203Z,99894.97
2023-01-29T04:16:58.328Z,99911.56
2023-01-29T04:22:38.232Z,99904.47
2023-01-29T04:28:41.574Z,99912.00
2023-01-29T04:34:27.748Z,99905.72
2023-01-29T04:40:47.008Z,99897.63
2023-01-29T04:46:37.222Z,99899.44
2023-01-29T04:52:12.586Z,99880.59
2023-01-29T04:57:55.637Z,99860.94
2023-01-29T05:03:17.927Z,99872.69
2023-01-29T05:08:41.746Z,99850.16
2023-01-29T05:14:07.840Z,99840.84
2023-01-29T05:19:30.126Z,99832.75
2023-01-29T05:24:52.267Z,99843.06
2023-01-29T05:30:15.114Z,99851.00
2023-01-29T05:35:37.326Z,99846.53
2023-01-29T05:41:00.205Z,99825.66
2023-01-29T05:46:22.321Z,99825.03
2023-01-29T05:51:48.469Z,99830.34
2023-01-29T05:57:47.636Z,99847.38
2023-01-29T06:03:12.131Z,99827.69
2023-01-29T06:08:34.488Z,99819.41
2023-01-29T06:13:56.715Z,99811.13
2023-01-29T06:19:21.381Z,99814.56
2023-01-29T06:24:43.224Z,99820.22
2023-01-29T06:30:06.652Z,99821.47
2023-01-29T06:35:29.260Z,99813.97
2023-01-29T06:40:51.893Z,99791.25
2023-01-29T06:46:14.228Z,99800.81
2023-01-29T06:51:37.381Z,99789.06
2023-01-29T06:56:59.171Z,99805.66
2023-01-29T07:02:21.526Z,99782.56
2023-01-29T07:07:43.708Z,99785.78
2023-01-29T07:13:05.766Z,99773.63
2023-01-29T07:18:31.899Z,99777.25
2023-01-29T07:23:53.898Z,99755.78
2023-01-29T07:29:15.912Z,99772.78
2023-01-29T07:34:37.997Z,99760.22
2023-01-29T07:40:00.257Z,99751.34
2023-01-29T07:45:22.667Z,99754.56
2023-01-29T07:50:44.823Z,99769.13
2023-01-29T07:56:06.959Z,99734.25
2023-01-29T08:01:28.902Z,99746.81
2023-01-29T08:06:51.174Z,99740.72
2023-01-29T08:12:13.060Z,99751.59
2023-01-29T08:17:36.852Z,99710.03
2023-01-29T08:23:08.629Z,99704.16
2023-01-29T08:28:30.947Z,99737.56
2023-01-29T08:33:55.156Z,99733.47
2023-01-29T08:39:17.086Z,99727.66
2023-01-29T08:44:45.270Z,99689.41
2023-01-29T08:50:08.363Z,99701.34
2023-01-29T08:55:23.351Z,99721.94
2023-01-29T09:00:45.607Z,99722.53
2023-01-29T09:06:09.438Z,99726.00
2023-01-29T09:11:31.439Z,99711.25
2023-01-29T09:16:53.357Z,99703.38
2023-01-29T09:22:17.109Z,99698.47
2023-01-29T09:27:39.376Z,99697.03
2023-01-29T09:33:07.103Z,99679.41
2023-01-29T09:38:32.104Z,99683.00
2023-01-29T09:44:02.878Z,99684.03
2023-01-29T09:49:49.100Z,99649.38
2023-01-29T09:55:31.549Z,99648.34
2023-01-29T10:01:21.796Z,99647.31
2023-01-29T10:07:01.908Z,99626.28
2023-01-29T10:12:54.453Z,99645.66
2023-01-29T10:18:39.228Z,99631.06
2023-01-29T10:24:31.718Z,99619.88
2023-01-29T10:29:56.087Z,99566.94
2023-01-29T10:35:47.432Z,99599.03
2023-01-29T10:41:40.366Z,99565.47
2023-01-29T10:47:05.323Z,99584.81
2023-01-29T10:52:36.402Z,99574.28
2023-01-29T10:58:35.343Z,99556.91
2023-01-29T11:04:04.990Z,99545.13
2023-01-29T11:10:05.321Z,99557.19
2023-01-29T11:15:37.249Z,99539.81
2023-01-29T11:21:07.289Z,99553.00
2023-01-29T11:26:30.336Z,99545.06
2023-01-29T11:31:54.438Z,99507.59
2023-01-29T11:37:17.874Z,99530.06
2023-01-29T11:42:41.650Z,99540.59
2023-01-29T11:48:04.238Z,99544.28
2023-01-29T11:53:35.569Z,99554.78
2023-01-29T11:59:06.743Z,99506.09
2023-01-29T12:04:29.301Z,99544.84
2023-01-29T12:09:55.701Z,99537.38
2023-01-29T12:15:36.970Z,99532.69
2023-01-29T12:21:03.265Z,99519.34
2023-01-29T12:26:32.267Z,99511.09
2023-01-29T12:32:18.456Z,99502.16
2023-01-29T12:37:53.355Z,99501.91
2023-01-29T12:43:25.726Z,99486.94
2023-01-29T12:48:50.208Z,99487.75
2023-01-29T12:54:18.880Z,99495.47
2023-01-29T12:59:47.970Z,99472.22
2023-01-29T13:05:49.341Z,99489.56
2023-01-29T13:11:40.403Z,99483.94
2023-01-29T13:17:34.364Z,99481.91
2023-01-29T13:23:00.020Z,99484.91
2023-01-29T13:28:27.390Z,99488.53
2023-01-29T13:34:10.598Z,99477.06
2023-01-29T13:39:47.080Z,99478.44
2023-01-29T13:45:18.614Z,99485.53
2023-01-29T13:50:48.317Z,99478.22
2023-01-29T13:56:28.981Z,99471.34
2023-01-29T14:01:51.095Z,99467.09
2023-01-29T14:07:44.280Z,99462.03
2023-01-29T14:13:11.918Z,99466.28
2023-01-29T14:18:36.732Z,99464.06
2023-01-29T14:24:20.612Z,99481.91
2023-01-29T14:29:42.801Z,99473.16
2023-01-29T14:35:18.158Z,99481.91
2023-01-29T14:40:41.887Z,99458.84
2023-01-29T14:46:36.086Z,99465.31
2023-01-29T14:52:00.307Z,99459.94
2023-01-29T14:57:24.482Z,99447.44
2023-01-29T15:02:47.319Z,99475.91
2023-01-29T15:08:34.766Z,99457.88
2023-01-29T15:14:15.930Z,99472.84
2023-01-29T15:19:48.213Z,99449.44
2023-01-29T15:25:19.861Z,99435.50
2023-01-29T15:30:44.514Z,99441.16
2023-01-29T15:36:08.423Z,99424.31
2023-01-29T15:41:31.094Z,99419.09
2023-01-29T15:47:00.510Z,99422.97
2023-01-29T15:52:30.742Z,99423.78
2023-01-29T15:57:56.398Z,99439.09
2023-01-29T16:03:21.505Z,99418.88
2023-01-29T16:08:49.027Z,99430.63
2023-01-29T16:14:19.625Z,99432.84
2023-01-29T16:19:41.972Z,99407.16
2023-01-29T16:25:19.416Z,99425.69
2023-01-29T16:30:45.341Z,99412.75
2023-01-29T16:36:22.317Z,99423.91
2023-01-29T16:41:44.292Z,99418.03
2023-01-29T16:47:27.962Z,99414.81
2023-01-29T16:53:01.504Z,99388.81
2023-01-29T16:58:28.900Z,99397.47
2023-01-29T17:04:08.030Z,99393.88
2023-01-29T17:09:36.107Z,99393.72
2023-01-29T17:15:04.543Z,99374.09
2023-01-29T17:20:27.946Z,99355.91
2023-01-29T17:25:50.776Z,99348.78
2023-01-29T17:31:13.112Z,99367.50
2023-01-29T17:36:35.360Z,99348.78
2023-01-29T17:41:59.364Z,99364.69
2023-01-29T17:47:21.913Z,99341.31
2023-01-29T17:52:46.005Z,99354.44
2023-01-29T17:58:18.278Z,99344.53
2023-01-29T18:03:42.742Z,99341.50
2023-01-29T18:09:06.136Z,99332.84
2023-01-29T18:14:28.389Z,99354.47
2023-01-29T18:19:50.959Z,99354.06
2023-01-29T18:25:20.063Z,99347.53
2023-01-29T18:30:43.897Z,99336.53
2023-01-29T18:36:07.847Z,99361.50
2023-01-29T18:41:33.142Z,99371.22
2023-01-29T18:46:56.160Z,99381.16
2023-01-29T18:52:20.176Z,99339.72
2023-01-29T18:58:25.003Z,99338.31
2023-01-29T19:03:28.554Z,99354.72
2023-01-29T19:08:50.966Z,99347.81
2023-01-29T19:14:13.235Z,99349.41
2023-01-29T19:19:35.865Z,99327.97
2023-01-29T19:25:00.680Z,99346.47
2023-01-29T19:30:22.946Z,99314.44
2023-01-29T19:35:46.086Z,99326.88
2023-01-29T19:41:08.126Z,99322.28
2023-01-29T19:46:30.880Z,99312.97
2023-01-29T19:51:56.584Z,99327.53
2023-01-29T19:57:23.355Z,99327.91
2023-01-29T20:02:48.820Z,99333.72
2023-01-29T20:08:13.975Z,99317.75
2023-01-29T20:13:36.478Z,99310.72
2023-01-29T20:19:13.857Z,99291.16
2023-01-29T20:24:40.127Z,99313.34
2023-01-29T20:30:02.133Z,99308.88
2023-01-29T20:35:25.456Z,99300.41
2023-01-29T20:40:47.679Z,99285.47
2023-01-29T20:46:10.067Z,99295.28
2023-01-29T20:51:32.716Z,99303.13
2023-01-29T20:57:00.678Z,99297.91
2023-01-29T21:02:23.179Z,99280.94
2023-01-29T21:07:45.565Z,99301.47
2023-01-29T21:13:07.923Z,99279.47
2023-01-29T21:18:30.625Z,99286.16
2023-01-29T21:23:55.227Z,99274.63
2023-01-29T21:29:17.339Z,99261.34
2023-01-29T21:34:40.855Z,99259.88
2023-01-29T21:40:02.683Z,99261.91
2023-01-29T21:45:24.950Z,99265.50
2023-01-29T21:50:49.349Z,99280.97
2023-01-29T21:56:11.349Z,99254.97
2023-01-29T22:01:38.043Z,99238.38
2023-01-29T22:07:00.509Z,99243.03
2023-01-29T22:12:24.734Z,99225.88
2023-01-29T22:17:46.827Z,99210.50
2023-01-29T22:23:10.767Z,99212.69
2023-01-29T22:28:33.034Z,99216.88
2023-01-29T22:33:55.075Z,99205.28
2023-01-29T22:39:17.168Z,99211.31
2023-01-29T22:44:39.895Z,99206.03
2023-01-29T22:50:04.713Z,99212.19
2023-01-29T22:55:29.715Z,99164.16
2023-01-29T23:00:51.874Z,99216.50
2023-01-29T23:06:15.143Z,99212.03
2023-01-29T23:11:37.196Z,99214.00
2023-01-29T23:16:58.968Z,99211.44
2023-01-29T23:22:21.444Z,99204.13
2023-01-29T23:27:43.477Z,99194.94
2023-01-29T23:33:05.524Z,99187.91
2023-01-29T23:38:27.276Z,99190.91
2023-01-29T23:43:49.771Z,99190.22
2023-01-29T23:49:13.469Z,99181.88
2023-01-29T23:54:35.589Z,99162.16
2023-01-29T23:59:57.647Z,99164.47
